createdAt,value
2018-09-23T00:01:23.349Z,101375.65
2018-09-23T00:03:51.392Z,101369.63
2018-09-23T00:06:19.455Z,101369.89
2018-09-23T00:08:47.563Z,101369.96
2018-09-23T00:11:15.616Z,101375.42
2018-09-23T00:13:43.833Z,101366.55
2018-09-23T00:16:11.888Z,101365.25
2018-09-23T00:18:39.984Z,101369.41
2018-09-23T00:21:08.048Z,101366.63
2018-09-23T00:23:36.111Z,101361.09
2018-09-23T00:26:04.168Z,101362.06
2018-09-23T00:28:32.235Z,101366.30
2018-09-23T00:31:00.274Z,101363.05
2018-09-23T00:33:28.333Z,101365.25
2018-09-23T00:35:56.392Z,101365.81
2018-09-23T00:38:24.436Z,101364.43
2018-09-23T00:40:52.493Z,101355.89
2018-09-23T00:43:20.571Z,101361.17
2018-09-23T00:45:48.611Z,101368.69
2018-09-23T00:48:16.705Z,101369.33
2018-09-23T00:50:44.784Z,101368.77
2018-09-23T00:53:12.848Z,101366.89
2018-09-23T00:55:40.892Z,101365.84
2018-09-23T00:58:08.959Z,101366.82
2018-09-23T01:00:37.008Z,101371.53
2018-09-23T01:03:05.145Z,101369.33
2018-09-23T01:05:33.193Z,101369.17
2018-09-23T01:08:01.263Z,101360.16
2018-09-23T01:10:29.340Z,101361.36
2018-09-23T01:12:57.379Z,101349.01
2018-09-23T01:15:25.448Z,101358.20
2018-09-23T01:17:53.565Z,101355.73
2018-09-23T01:20:21.604Z,101354.36
2018-09-23T01:22:49.894Z,101352.81
2018-09-23T01:25:17.980Z,101347.36
2018-09-23T01:27:46.033Z,101346.88
2018-09-23T01:30:14.092Z,101352.10
2018-09-23T01:32:42.157Z,101349.89
2018-09-23T01:35:10.219Z,101349.41
2018-09-23T01:37:38.360Z,101347.27
2018-09-23T01:40:06.716Z,101348.77
2018-09-23T01:42:34.759Z,101349.89
2018-09-23T01:45:02.820Z,101347.19
2018-09-23T01:47:30.872Z,101346.21
2018-09-23T01:49:58.956Z,101343.78
2018-09-23T01:52:27.024Z,101345.98
2018-09-23T01:54:55.080Z,101343.45
2018-09-23T01:57:23.133Z,101344.34
2018-09-23T01:59:51.191Z,101345.72
2018-09-23T02:02:19.239Z,101341.27
2018-09-23T02:04:47.303Z,101327.11
2018-09-23T02:07:15.374Z,101323.78
2018-09-23T02:09:43.422Z,101323.78
2018-09-23T02:12:11.478Z,101323.52
2018-09-23T02:14:39.536Z,101316.04
2018-09-23T02:17:07.594Z,101314.89
2018-09-23T02:19:35.644Z,101316.27
2018-09-23T02:22:03.720Z,101322.70
2018-09-23T02:24:31.781Z,101317.16
2018-09-23T02:26:59.844Z,101313.61
2018-09-23T02:29:27.904Z,101312.78
2018-09-23T02:31:55.965Z,101315.78
2018-09-23T02:34:24.064Z,101315.06
2018-09-23T02:36:52.120Z,101310.39
2018-09-23T02:39:20.175Z,101300.45
2018-09-23T02:41:48.236Z,101292.41
2018-09-23T02:44:16.292Z,101288.59
2018-09-23T02:46:44.351Z,101297.69
2018-09-23T02:49:12.417Z,101287.29
2018-09-23T02:51:40.510Z,101303.89
2018-09-23T02:54:08.567Z,101300.38
2018-09-23T02:56:36.628Z,101302.91
2018-09-23T02:59:04.695Z,101298.27
2018-09-23T03:01:32.768Z,101295.24
2018-09-23T03:04:00.840Z,101295.80
2018-09-23T03:06:28.928Z,101293.86
2018-09-23T03:08:56.979Z,101293.03
2018-09-23T03:11:25.049Z,101293.38
2018-09-23T03:13:53.098Z,101279.88
2018-09-23T03:16:21.151Z,101278.83
2018-09-23T03:18:49.191Z,101280.77
2018-09-23T03:21:17.297Z,101276.69
2018-09-23T03:23:45.336Z,101273.70
2018-09-23T03:26:13.393Z,101278.34
2018-09-23T03:28:41.448Z,101270.60
2018-09-23T03:31:09.532Z,101264.32
2018-09-23T03:33:37.564Z,101261.89
2018-09-23T03:36:05.628Z,101255.80
2018-09-23T03:38:33.700Z,101251.39
2018-09-23T03:41:01.756Z,101249.85
2018-09-23T03:43:29.810Z,101246.86
2018-09-23T03:45:57.874Z,101248.47
2018-09-23T03:48:25.926Z,101252.88
2018-09-23T03:50:53.985Z,101251.23
2018-09-23T03:53:22.037Z,101245.38
2018-09-23T03:55:50.121Z,101254.26
2018-09-23T03:58:18.194Z,101252.55
2018-09-23T04:00:46.275Z,101249.22
2018-09-23T04:03:14.324Z,101255.53
2018-09-23T04:05:42.392Z,101252.21
2018-09-23T04:08:10.473Z,101248.33
2018-09-23T04:10:38.534Z,101243.28
2018-09-23T04:13:06.579Z,101250.09
2018-09-23T04:15:34.639Z,101246.43
2018-09-23T04:18:02.692Z,101235.55
2018-09-23T04:20:30.769Z,101226.66
2018-09-23T04:22:58.825Z,101230.73
2018-09-23T04:25:26.889Z,101229.53
2018-09-23T04:27:54.956Z,101231.70
2018-09-23T04:30:23.029Z,101222.28
2018-09-23T04:32:51.384Z,101214.70
2018-09-23T04:35:19.661Z,101213.83
2018-09-23T04:37:48.248Z,101214.31
2018-09-23T04:40:16.295Z,101209.04
2018-09-23T04:42:44.357Z,101209.61
2018-09-23T04:45:12.420Z,101213.75
2018-09-23T04:47:40.496Z,101218.47
2018-09-23T04:50:08.549Z,101216.59
2018-09-23T04:52:36.617Z,101214.14
2018-09-23T04:55:04.732Z,101221.31
2018-09-23T04:57:32.797Z,101208.86
2018-09-23T05:00:00.880Z,101213.57
2018-09-23T05:02:28.953Z,101214.47
2018-09-23T05:04:56.987Z,101206.17
2018-09-23T05:07:25.059Z,101203.97
2018-09-23T05:09:53.128Z,101203.41
2018-09-23T05:12:21.196Z,101208.04
2018-09-23T05:14:49.241Z,101208.04
2018-09-23T05:17:17.299Z,101210.66
2018-09-23T05:19:45.343Z,101214.32
2018-09-23T05:22:13.420Z,101215.93
2018-09-23T05:24:41.480Z,101205.69
2018-09-23T05:27:09.556Z,101213.42
2018-09-23T05:29:37.622Z,101220.83
2018-09-23T05:32:05.688Z,101221.23
2018-09-23T05:34:33.736Z,101216.78
2018-09-23T05:37:01.796Z,101216.11
2018-09-23T05:39:29.864Z,101218.88
2018-09-23T05:41:57.932Z,101214.64
2018-09-23T05:44:25.988Z,101211.20
2018-09-23T05:46:54.064Z,101208.02
2018-09-23T05:49:22.112Z,101209.11
2018-09-23T05:51:50.196Z,101211.76
2018-09-23T05:54:18.257Z,101214.78
2018-09-23T05:56:46.377Z,101215.50
2018-09-23T05:59:14.465Z,101214.84
2018-09-23T06:01:42.529Z,101219.71
2018-09-23T06:04:10.591Z,101210.51
2018-09-23T06:06:38.648Z,101210.09
2018-09-23T06:09:07.060Z,101216.36
2018-09-23T06:11:35.309Z,101221.00
2018-09-23T06:14:03.380Z,101220.02
2018-09-23T06:16:31.430Z,101208.52
2018-09-23T06:18:59.491Z,101204.25
2018-09-23T06:21:27.565Z,101205.22
2018-09-23T06:23:55.629Z,101209.77
2018-09-23T06:26:23.701Z,101210.81
2018-09-23T06:28:51.771Z,101208.78
2018-09-23T06:31:19.840Z,101218.05
2018-09-23T06:33:47.893Z,101212.65
2018-09-23T06:36:15.943Z,101201.40
2018-09-23T06:38:44.033Z,101198.77
2018-09-23T06:41:12.084Z,101201.59
2018-09-23T06:43:40.140Z,101207.17
2018-09-23T06:46:08.203Z,101197.53
2018-09-23T06:48:36.300Z,101200.77
2018-09-23T06:51:04.411Z,101202.73
2018-09-23T06:53:32.440Z,101203.55
2018-09-23T06:56:00.515Z,101204.72
2018-09-23T06:58:28.585Z,101213.08
2018-09-23T07:00:56.640Z,101200.86
2018-09-23T07:03:24.692Z,101211.08
2018-09-23T07:05:52.764Z,101200.95
2018-09-23T07:08:20.827Z,101202.16
2018-09-23T07:10:48.887Z,101205.75
2018-09-23T07:13:16.952Z,101203.96
2018-09-23T07:15:45.005Z,101199.27
2018-09-23T07:18:13.156Z,101190.52
2018-09-23T07:20:41.143Z,101190.77
2018-09-23T07:23:09.213Z,101189.63
2018-09-23T07:25:37.283Z,101192.69
2018-09-23T07:28:05.376Z,101196.44
2018-09-23T07:30:33.442Z,101192.64
2018-09-23T07:33:01.517Z,101193.48
2018-09-23T07:35:29.572Z,101204.50
2018-09-23T07:37:57.628Z,101217.14
2018-09-23T07:40:25.676Z,101217.98
2018-09-23T07:42:53.741Z,101219.73
2018-09-23T07:45:21.900Z,101208.28
2018-09-23T07:47:49.960Z,101199.72
2018-09-23T07:50:18.024Z,101193.14
2018-09-23T07:52:46.099Z,101191.65
2018-09-23T07:55:14.148Z,101174.28
2018-09-23T07:57:42.229Z,101184.48
2018-09-23T08:00:10.272Z,101187.61
2018-09-23T08:02:38.353Z,101186.02
2018-09-23T08:05:06.440Z,101182.56
2018-09-23T08:07:34.512Z,101170.67
2018-09-23T08:10:02.665Z,101174.83
2018-09-23T08:12:30.751Z,101175.05
2018-09-23T08:14:59.004Z,101180.71
2018-09-23T08:17:26.865Z,101184.31
2018-09-23T08:19:55.212Z,101183.27
2018-09-23T08:22:23.015Z,101181.64
2018-09-23T08:24:51.141Z,101172.52
2018-09-23T08:27:19.201Z,101167.62
2018-09-23T08:29:47.276Z,101177.81
2018-09-23T08:32:15.340Z,101175.95
2018-09-23T08:34:43.402Z,101174.64
2018-09-23T08:37:11.515Z,101171.98
2018-09-23T08:39:39.540Z,101175.53
2018-09-23T08:42:07.605Z,101169.63
2018-09-23T08:44:35.661Z,101170.27
2018-09-23T08:47:03.708Z,101165.63
2018-09-23T08:49:31.764Z,101173.13
2018-09-23T08:51:59.886Z,101180.70
2018-09-23T08:54:27.925Z,101174.30
2018-09-23T08:56:55.988Z,101158.47
2018-09-23T08:59:24.090Z,101149.39
2018-09-23T09:01:52.145Z,101153.50
2018-09-23T09:04:20.222Z,101142.62
2018-09-23T09:06:48.340Z,101137.12
2018-09-23T09:09:16.400Z,101129.62
2018-09-23T09:11:44.495Z,101131.36
2018-09-23T09:14:12.528Z,101128.19
2018-09-23T09:16:40.592Z,101129.95
2018-09-23T09:19:08.665Z,101128.52
2018-09-23T09:21:36.724Z,101121.28
2018-09-23T09:24:04.855Z,101121.96
2018-09-23T09:26:32.918Z,101112.42
2018-09-23T09:29:00.986Z,101099.22
2018-09-23T09:31:29.051Z,101103.91
2018-09-23T09:33:57.133Z,101103.59
2018-09-23T09:36:25.184Z,101107.00
2018-09-23T09:38:53.227Z,101113.09
2018-09-23T09:41:21.302Z,101117.20
2018-09-23T09:43:49.352Z,101113.00
2018-09-23T09:46:17.399Z,101106.47
2018-09-23T09:48:45.441Z,101107.70
2018-09-23T09:51:13.500Z,101092.52
2018-09-23T09:53:41.606Z,101087.36
2018-09-23T09:56:09.661Z,101094.52
2018-09-23T09:58:37.712Z,101089.64
2018-09-23T10:01:05.757Z,101086.94
2018-09-23T10:03:33.804Z,101080.40
2018-09-23T10:06:01.876Z,101069.22
2018-09-23T10:08:29.927Z,101067.62
2018-09-23T10:10:57.971Z,101061.09
2018-09-23T10:13:26.069Z,101054.55
2018-09-23T10:15:54.125Z,101049.42
2018-09-23T10:18:22.168Z,101045.67
2018-09-23T10:20:51.128Z,101046.86
2018-09-23T10:23:19.390Z,101062.64
2018-09-23T10:25:47.340Z,101049.99
2018-09-23T10:28:15.408Z,101042.66
2018-09-23T10:30:43.493Z,101039.22
2018-09-23T10:33:11.545Z,101041.70
2018-09-23T10:35:39.593Z,101037.58
2018-09-23T10:38:07.655Z,101037.37
2018-09-23T10:40:35.772Z,101048.17
2018-09-23T10:43:03.829Z,101052.92
2018-09-23T10:45:31.884Z,101049.09
2018-09-23T10:47:59.964Z,101046.37
2018-09-23T10:50:28.045Z,101035.20
2018-09-23T10:52:56.103Z,101036.83
2018-09-23T10:55:24.232Z,101043.58
2018-09-23T10:57:52.204Z,101058.73
2018-09-23T11:00:20.329Z,101058.93
2018-09-23T11:02:48.359Z,101049.69
2018-09-23T11:05:16.416Z,101049.95
2018-09-23T11:07:44.536Z,101045.62
2018-09-23T11:10:12.577Z,101042.45
2018-09-23T11:12:40.625Z,101031.37
2018-09-23T11:15:08.794Z,101032.38
2018-09-23T11:17:36.793Z,101020.41
2018-09-23T11:20:04.874Z,101014.61
2018-09-23T11:22:32.956Z,101004.66
2018-09-23T11:25:01.001Z,100996.61
2018-09-23T11:27:29.064Z,100986.41
2018-09-23T11:29:57.100Z,100978.84
2018-09-23T11:32:25.233Z,100970.45
2018-09-23T11:34:53.263Z,100960.19
2018-09-23T11:37:21.311Z,100948.41
2018-09-23T11:39:50.384Z,100961.84
2018-09-23T11:42:18.417Z,100954.14
2018-09-23T11:44:46.461Z,100948.64
2018-09-23T11:47:14.496Z,100946.88
2018-09-23T11:49:42.537Z,100941.78
2018-09-23T11:52:10.584Z,100936.72
2018-09-23T11:54:38.649Z,100940.22
2018-09-23T11:57:06.700Z,100953.17
2018-09-23T11:59:34.733Z,100955.66
2018-09-23T12:02:04.382Z,100960.30
2018-09-23T12:04:32.420Z,100948.99
2018-09-23T12:07:00.419Z,100940.70
2018-09-23T12:09:28.542Z,100943.63
2018-09-23T12:11:56.595Z,100939.81
2018-09-23T12:14:24.670Z,100958.33
2018-09-23T12:16:52.709Z,100960.81
2018-09-23T12:19:20.764Z,100953.31
2018-09-23T12:21:48.805Z,100954.33
2018-09-23T12:24:16.848Z,100955.81
2018-09-23T12:26:44.919Z,100960.88
2018-09-23T12:29:13.001Z,100965.84
2018-09-23T12:31:41.084Z,100964.89
2018-09-23T12:34:09.128Z,100963.88
2018-09-23T12:36:37.158Z,100957.33
2018-09-23T12:39:08.731Z,100964.89
2018-09-23T12:41:36.917Z,100968.16
2018-09-23T12:44:04.995Z,100952.81
2018-09-23T12:46:33.026Z,100959.70
2018-09-23T12:49:01.165Z,100972.08
2018-09-23T12:51:29.210Z,100962.89
2018-09-23T12:53:57.276Z,100952.45
2018-09-23T12:56:25.337Z,100950.61
2018-09-23T12:58:53.380Z,100931.53
2018-09-23T13:01:21.488Z,100941.40
2018-09-23T13:03:49.524Z,100931.16
2018-09-23T13:06:17.623Z,100916.56
2018-09-23T13:08:45.662Z,100905.94
2018-09-23T13:11:13.728Z,100908.74
2018-09-23T13:13:41.788Z,100915.54
2018-09-23T13:16:09.940Z,100900.94
2018-09-23T13:18:37.977Z,100891.56
2018-09-23T13:21:06.018Z,100899.39
2018-09-23T13:23:34.112Z,100896.86
2018-09-23T13:26:02.241Z,100883.68
2018-09-23T13:28:30.285Z,100896.41
2018-09-23T13:30:58.349Z,100897.91
2018-09-23T13:33:26.405Z,100873.90
2018-09-23T13:35:54.476Z,100830.83
2018-09-23T13:38:22.592Z,100812.72
2018-09-23T13:40:50.664Z,100836.41
2018-09-23T13:43:18.708Z,100864.84
2018-09-23T13:45:46.844Z,100874.73
2018-09-23T13:48:14.993Z,100860.66
2018-09-23T13:50:43.102Z,100844.80
2018-09-23T13:53:11.157Z,100833.97
2018-09-23T13:55:39.221Z,100837.59
2018-09-23T13:58:07.294Z,100850.59
2018-09-23T14:00:35.485Z,100856.03
2018-09-23T14:03:03.605Z,100843.07
2018-09-23T14:05:31.756Z,100813.44
2018-09-23T14:07:59.818Z,100820.30
2018-09-23T14:10:27.879Z,100828.55
2018-09-23T14:12:55.940Z,100836.88
2018-09-23T14:15:24.001Z,100847.75
2018-09-23T14:17:52.054Z,100838.64
2018-09-23T14:20:20.125Z,100845.80
2018-09-23T14:22:48.301Z,100855.88
2018-09-23T14:25:16.531Z,100837.37
2018-09-23T14:27:44.637Z,100832.63
2018-09-23T14:30:12.761Z,100832.27
2018-09-23T14:32:40.832Z,100829.48
2018-09-23T14:35:08.896Z,100814.20
2018-09-23T14:37:36.983Z,100831.09
2018-09-23T14:40:05.028Z,100844.64
2018-09-23T14:42:33.176Z,100828.76
2018-09-23T14:45:01.164Z,100840.69
2018-09-23T14:47:29.269Z,100884.33
2018-09-23T14:49:57.332Z,100896.38
2018-09-23T14:52:25.376Z,100880.22
2018-09-23T14:54:53.520Z,100880.66
2018-09-23T14:57:21.517Z,100890.38
2018-09-23T14:59:54.191Z,100869.55
2018-09-23T15:02:17.647Z,100854.06
2018-09-23T15:04:45.778Z,100860.07
2018-09-23T15:07:13.828Z,100870.82
2018-09-23T15:09:41.912Z,100869.92
2018-09-23T15:12:09.977Z,100867.37
2018-09-23T15:14:38.049Z,100877.32
2018-09-23T15:17:06.093Z,100876.17
2018-09-23T15:19:34.155Z,100872.78
2018-09-23T15:22:02.197Z,100886.11
2018-09-23T15:24:30.251Z,100887.49
2018-09-23T15:26:58.293Z,100891.09
2018-09-23T15:29:26.367Z,100886.11
2018-09-23T15:31:54.420Z,100875.81
2018-09-23T15:34:22.556Z,100865.84
2018-09-23T15:36:50.647Z,100868.86
2018-09-23T15:39:18.685Z,100860.28
2018-09-23T15:41:46.756Z,100859.50
2018-09-23T15:44:14.843Z,100863.67
2018-09-23T15:46:42.896Z,100863.22
2018-09-23T15:49:10.950Z,100871.31
2018-09-23T15:51:39.021Z,100864.94
2018-09-23T15:54:07.481Z,100867.23
2018-09-23T15:56:35.548Z,100860.64
2018-09-23T15:59:03.590Z,100866.77
2018-09-23T16:01:31.652Z,100869.34
2018-09-23T16:03:59.708Z,100864.47
2018-09-23T16:06:27.760Z,100873.17
2018-09-23T16:08:55.817Z,100876.30
2018-09-23T16:11:23.873Z,100877.23
2018-09-23T16:13:51.934Z,100878.05
2018-09-23T16:16:20.032Z,100873.88
2018-09-23T16:18:48.194Z,100872.49
2018-09-23T16:21:16.149Z,100871.70
2018-09-23T16:23:44.231Z,100875.62
2018-09-23T16:26:12.307Z,100873.21
2018-09-23T16:28:40.367Z,100877.73
2018-09-23T16:31:08.465Z,100879.45
2018-09-23T16:33:36.541Z,100879.60
2018-09-23T16:36:04.616Z,100882.70
2018-09-23T16:38:32.688Z,100883.31
2018-09-23T16:41:00.764Z,100882.85
2018-09-23T16:43:28.826Z,100881.01
2018-09-23T16:45:56.872Z,100890.48
2018-09-23T16:48:24.913Z,100893.25
2018-09-23T16:50:52.984Z,100897.53
2018-09-23T16:53:21.060Z,100894.19
2018-09-23T16:55:49.152Z,100902.66
2018-09-23T16:58:17.225Z,100903.31
2018-09-23T17:00:45.376Z,100901.28
2018-09-23T17:03:13.380Z,100895.71
2018-09-23T17:05:41.447Z,100899.77
2018-09-23T17:08:09.517Z,100899.53
2018-09-23T17:10:37.584Z,100900.39
2018-09-23T17:13:05.671Z,100905.02
2018-09-23T17:15:33.765Z,100916.47
2018-09-23T17:18:01.852Z,100920.23
2018-09-23T17:20:29.888Z,100932.64
2018-09-23T17:22:57.961Z,100939.08
2018-09-23T17:25:26.024Z,100947.29
2018-09-23T17:27:55.088Z,100951.33
2018-09-23T17:30:23.463Z,100950.38
2018-09-23T17:32:51.553Z,100957.16
2018-09-23T17:35:19.605Z,100964.83
2018-09-23T17:37:47.684Z,100964.44
2018-09-23T17:40:15.763Z,100970.85
2018-09-23T17:42:43.812Z,100973.61
2018-09-23T17:45:11.879Z,100977.16
2018-09-23T17:47:39.929Z,100983.08
2018-09-23T17:50:08.464Z,100994.64
2018-09-23T17:52:36.488Z,100999.27
2018-09-23T17:55:04.557Z,101005.27
2018-09-23T17:57:32.620Z,101005.52
2018-09-23T18:00:00.672Z,101023.04
2018-09-23T18:02:29.508Z,101019.97
2018-09-23T18:04:57.544Z,101021.62
2018-09-23T18:07:25.615Z,101028.57
2018-09-23T18:09:53.680Z,101039.56
2018-09-23T18:12:21.751Z,101037.53
2018-09-23T18:14:49.808Z,101039.55
2018-09-23T18:17:17.870Z,101038.95
2018-09-23T18:19:46.016Z,101047.88
2018-09-23T18:22:14.121Z,101056.53
2018-09-23T18:24:42.187Z,101055.05
2018-09-23T18:27:10.241Z,101057.63
2018-09-23T18:29:38.292Z,101064.37
2018-09-23T18:32:06.437Z,101062.20
2018-09-23T18:34:34.505Z,101073.24
2018-09-23T18:37:02.587Z,101071.06
2018-09-23T18:39:30.621Z,101078.50
2018-09-23T18:41:58.675Z,101081.67
2018-09-23T18:44:26.784Z,101090.95
2018-09-23T18:46:54.831Z,101095.58
2018-09-23T18:49:22.889Z,101104.14
2018-09-23T18:51:50.955Z,101109.39
2018-09-23T18:54:24.494Z,101108.00
2018-09-23T18:56:52.548Z,101114.06
2018-09-23T18:59:20.608Z,101117.00
2018-09-23T19:01:48.717Z,101122.25
2018-09-23T19:04:16.764Z,101129.99
2018-09-23T19:06:44.816Z,101131.38
2018-09-23T19:09:12.892Z,101141.19
2018-09-23T19:11:40.996Z,101147.39
2018-09-23T19:14:09.053Z,101148.17
2018-09-23T19:16:37.085Z,101157.86
2018-09-23T19:19:05.149Z,101164.65
2018-09-23T19:21:33.225Z,101170.62
2018-09-23T19:24:01.276Z,101172.20
2018-09-23T19:26:29.505Z,101179.45
2018-09-23T19:28:57.632Z,101183.58
2018-09-23T19:31:25.704Z,101181.59
2018-09-23T19:33:53.776Z,101181.97
2018-09-23T19:36:21.846Z,101198.31
2018-09-23T19:38:50.004Z,101199.34
2018-09-23T19:41:18.082Z,101204.25
2018-09-23T19:43:46.180Z,101213.25
2018-09-23T19:46:14.260Z,101219.70
2018-09-23T19:48:42.319Z,101223.37
2018-09-23T19:51:10.384Z,101234.47
2018-09-23T19:53:38.568Z,101241.83
2018-09-23T19:56:06.715Z,101247.20
2018-09-23T19:58:34.799Z,101247.88
2018-09-23T20:01:02.845Z,101259.14
2018-09-23T20:03:30.925Z,101265.36
2018-09-23T20:05:58.985Z,101264.40
2018-09-23T20:08:27.071Z,101266.69
2018-09-23T20:10:55.121Z,101272.88
2018-09-23T20:13:23.470Z,101276.89
2018-09-23T20:15:51.719Z,101282.62
2018-09-23T20:18:19.637Z,101287.43
2018-09-23T20:20:47.701Z,101291.44
2018-09-23T20:23:15.768Z,101299.42
2018-09-23T20:25:43.827Z,101298.72
2018-09-23T20:28:11.955Z,101315.19
2018-09-23T20:30:39.999Z,101318.67
2018-09-23T20:33:08.080Z,101322.19
2018-09-23T20:35:36.143Z,101321.22
2018-09-23T20:38:04.193Z,101329.52
2018-09-23T20:40:32.258Z,101329.94
2018-09-23T20:43:00.303Z,101338.02
2018-09-23T20:45:28.382Z,101341.42
2018-09-23T20:47:56.449Z,101341.49
2018-09-23T20:50:24.520Z,101337.27
2018-09-23T20:52:52.552Z,101350.88
2018-09-23T20:55:20.617Z,101350.31
2018-09-23T20:57:48.665Z,101369.09
2018-09-23T21:00:16.785Z,101373.23
2018-09-23T21:02:44.864Z,101375.78
2018-09-23T21:05:12.936Z,101379.44
2018-09-23T21:07:40.980Z,101382.54
2018-09-23T21:10:09.064Z,101390.91
2018-09-23T21:12:37.189Z,101392.04
2018-09-23T21:15:06.439Z,101399.28
2018-09-23T21:17:34.493Z,101408.75
2018-09-23T21:20:02.544Z,101413.53
2018-09-23T21:22:30.612Z,101411.42
2018-09-23T21:24:58.732Z,101414.59
2018-09-23T21:27:26.799Z,101413.83
2018-09-23T21:29:54.872Z,101419.93
2018-09-23T21:32:22.944Z,101418.28
2018-09-23T21:34:51.013Z,101428.30
2018-09-23T21:37:19.073Z,101432.38
2018-09-23T21:39:47.153Z,101439.03
2018-09-23T21:42:15.212Z,101445.69
2018-09-23T21:44:43.268Z,101446.84
2018-09-23T21:47:11.377Z,101460.11
2018-09-23T21:49:39.456Z,101468.34
2018-09-23T21:52:07.549Z,101468.84
2018-09-23T21:54:35.729Z,101466.14
2018-09-23T21:57:03.802Z,101470.59
2018-09-23T21:59:31.900Z,101478.88
2018-09-23T22:01:59.964Z,101475.39
2018-09-23T22:04:28.068Z,101477.66
2018-09-23T22:06:56.150Z,101490.11
2018-09-23T22:09:24.229Z,101500.35
2018-09-23T22:11:52.284Z,101503.58
2018-09-23T22:14:20.338Z,101503.47
2018-09-23T22:16:48.398Z,101511.53
2018-09-23T22:19:16.472Z,101520.33
2018-09-23T22:21:44.568Z,101518.18
2018-09-23T22:24:12.596Z,101527.63
2018-09-23T22:26:40.629Z,101532.66
2018-09-23T22:29:08.706Z,101542.64
2018-09-23T22:31:36.796Z,101546.55
2018-09-23T22:34:04.849Z,101536.70
2018-09-23T22:36:32.929Z,101535.05
2018-09-23T22:39:00.988Z,101542.73
2018-09-23T22:41:29.292Z,101538.81
2018-09-23T22:43:57.348Z,101548.26
2018-09-23T22:46:25.404Z,101546.88
2018-09-23T22:48:53.452Z,101551.75
2018-09-23T22:51:21.524Z,101561.94
2018-09-23T22:53:49.575Z,101564.14
2018-09-23T22:56:17.629Z,101569.34
2018-09-23T22:58:45.692Z,101577.58
2018-09-23T23:01:13.797Z,101586.94
2018-09-23T23:03:41.882Z,101584.67
2018-09-23T23:06:09.968Z,101583.55
2018-09-23T23:08:38.016Z,101585.17
2018-09-23T23:11:06.077Z,101590.97
2018-09-23T23:13:34.128Z,101595.73
2018-09-23T23:16:02.196Z,101604.59
2018-09-23T23:18:30.249Z,101604.59
2018-09-23T23:20:58.320Z,101613.98
2018-09-23T23:23:26.375Z,101617.53
2018-09-23T23:25:54.440Z,101626.48
2018-09-23T23:28:22.491Z,101629.25
2018-09-23T23:30:50.580Z,101638.11
2018-09-23T23:33:18.638Z,101638.11
2018-09-23T23:35:46.703Z,101656.23
2018-09-23T23:38:14.784Z,101653.25
2018-09-23T23:40:42.862Z,101639.57
2018-09-23T23:43:10.912Z,101645.28
2018-09-23T23:45:38.995Z,101649.92
2018-09-23T23:48:07.093Z,101648.55
2018-09-23T23:50:35.180Z,101658.22
2018-09-23T23:53:03.228Z,101669.84
2018-09-23T23:55:31.285Z,101678.14
2018-09-23T23:57:59.344Z,101682.88
